Allendale, New Jersey
Current Conditions -  °F | °C
As of 1:32 AM on Monday 24 Nov 2014 (Local Time) from KTEB Reporting Station
Light Rain Light Rain  
Wind Chill: 52°   Ceiling: 2500
Heat Index: 52°   Visibility: 5mi
Dew Point: 46°   Wind: 3mph
Humidity: 82%   Direction: NA
Pressure: 29.9"   Gusts: NA
Location:  41.03°N, 74.14°W
Report Text: KTEB 240632Z AUTO VRB03KT 5SM -RA BR SCT014 BKN025 OVC036 11/08 A2990 RMK AO2 P0004
Loading
Personal Weather Stations






























Interactive Weather Map New forecast layout! Learn more

10-Day Weather Forecast

Advertisements
Track Severe Weather on mobile